createdAt,value
2022-10-16T00:02:38.959Z,11.87
2022-10-16T00:05:28.761Z,11.82
2022-10-16T00:08:17.073Z,11.82
2022-10-16T00:11:06.214Z,11.81
2022-10-16T00:13:57.719Z,11.82
2022-10-16T00:16:46.033Z,11.87
2022-10-16T00:19:34.324Z,11.95
2022-10-16T00:22:24.471Z,11.87
2022-10-16T00:25:13.143Z,11.90
2022-10-16T00:28:01.505Z,11.88
2022-10-16T00:30:49.812Z,11.90
2022-10-16T00:33:39.209Z,11.91
2022-10-16T00:36:28.172Z,11.98
2022-10-16T00:39:17.969Z,12.08
2022-10-16T00:42:06.476Z,12.08
2022-10-16T00:44:56.914Z,12.06
2022-10-16T00:47:50.095Z,11.90
2022-10-16T00:50:38.544Z,11.81
2022-10-16T00:53:27.484Z,11.78
2022-10-16T00:56:17.273Z,11.78
2022-10-16T00:59:07.662Z,11.69
2022-10-16T01:01:56.663Z,11.68
2022-10-16T01:04:46.178Z,11.65
2022-10-16T01:07:41.949Z,11.65
2022-10-16T01:10:33.822Z,11.67
2022-10-16T01:13:27.064Z,11.73
2022-10-16T01:16:18.220Z,11.68
2022-10-16T01:19:10.881Z,11.68
2022-10-16T01:22:00.761Z,11.66
2022-10-16T01:24:51.300Z,11.67
2022-10-16T01:27:42.678Z,11.66
2022-10-16T01:30:34.389Z,11.64
2022-10-16T01:33:23.755Z,11.67
2022-10-16T01:36:14.187Z,11.66
2022-10-16T01:39:03.847Z,11.67
2022-10-16T01:41:57.414Z,11.68
2022-10-16T01:44:48.714Z,11.70
2022-10-16T01:47:37.847Z,11.64
2022-10-16T01:50:26.830Z,11.60
2022-10-16T01:53:16.992Z,11.71
2022-10-16T01:56:08.769Z,11.72
2022-10-16T01:59:00.494Z,11.68
2022-10-16T02:01:52.996Z,11.66
2022-10-16T02:04:44.973Z,11.47
2022-10-16T02:07:33.374Z,11.45
2022-10-16T02:10:21.927Z,11.45
2022-10-16T02:13:11.774Z,11.41
2022-10-16T02:16:00.087Z,11.41
2022-10-16T02:18:49.847Z,11.37
2022-10-16T02:21:43.453Z,11.38
2022-10-16T02:24:35.414Z,11.44
2022-10-16T02:27:27.250Z,11.44
2022-10-16T02:30:16.835Z,11.47
2022-10-16T02:33:06.460Z,11.51
2022-10-16T02:35:56.852Z,11.48
2022-10-16T02:38:45.461Z,11.43
2022-10-16T02:41:34.195Z,11.44
2022-10-16T02:44:22.447Z,11.57
2022-10-16T02:47:13.761Z,11.56
2022-10-16T02:50:02.056Z,11.49
2022-10-16T02:52:51.778Z,11.41
2022-10-16T02:55:40.067Z,11.42
2022-10-16T02:58:28.409Z,11.43
2022-10-16T03:01:18.019Z,11.39
2022-10-16T03:04:06.457Z,11.37
2022-10-16T03:06:54.873Z,11.39
2022-10-16T03:09:44.682Z,11.40
2022-10-16T03:12:33.003Z,11.45
2022-10-16T03:15:21.337Z,11.51
2022-10-16T03:18:09.687Z,11.50
2022-10-16T03:20:57.977Z,11.46
2022-10-16T03:23:46.297Z,11.37
2022-10-16T03:26:36.023Z,11.34
2022-10-16T03:29:24.328Z,11.33
2022-10-16T03:32:12.593Z,11.41
2022-10-16T03:35:00.900Z,11.41
2022-10-16T03:37:49.173Z,11.38
2022-10-16T03:40:37.494Z,11.39
2022-10-16T03:43:27.187Z,11.43
2022-10-16T03:46:15.496Z,11.43
2022-10-16T03:49:06.073Z,11.34
2022-10-16T03:51:57.207Z,11.38
2022-10-16T03:54:45.494Z,11.44
2022-10-16T03:57:33.863Z,11.49
2022-10-16T04:00:23.555Z,11.51
2022-10-16T04:03:12.174Z,11.48
2022-10-16T04:06:00.483Z,11.43
2022-10-16T04:08:48.811Z,11.35
2022-10-16T04:11:37.081Z,11.30
2022-10-16T04:14:25.367Z,11.33
2022-10-16T04:17:15.043Z,11.33
2022-10-16T04:20:03.342Z,11.26
2022-10-16T04:22:51.630Z,11.30
2022-10-16T04:25:39.987Z,11.38
2022-10-16T04:28:28.760Z,11.39
2022-10-16T04:31:17.120Z,11.33
2022-10-16T04:34:06.839Z,11.37
2022-10-16T04:36:55.233Z,11.33
2022-10-16T04:39:43.554Z,11.27
2022-10-16T04:42:31.838Z,11.27
2022-10-16T04:45:20.204Z,11.23
2022-10-16T04:48:08.606Z,11.16
2022-10-16T04:50:58.354Z,11.10
2022-10-16T04:53:46.752Z,11.06
2022-10-16T04:56:41.174Z,11.01
2022-10-16T04:59:29.612Z,11.10
2022-10-16T05:02:17.891Z,11.18
2022-10-16T05:05:06.738Z,11.03
2022-10-16T05:07:56.533Z,10.97
2022-10-16T05:10:45.731Z,11.06
2022-10-16T05:13:34.084Z,11.14
2022-10-16T05:16:22.415Z,11.17
2022-10-16T05:19:27.786Z,11.05
2022-10-16T05:22:18.222Z,11.01
2022-10-16T05:25:08.534Z,11.08
2022-10-16T05:27:56.931Z,11.04
2022-10-16T05:30:45.229Z,11.04
2022-10-16T05:33:33.648Z,11.02
2022-10-16T05:36:28.539Z,11.08
2022-10-16T05:39:17.738Z,11.13
2022-10-16T05:42:07.893Z,11.20
2022-10-16T05:44:56.255Z,11.16
2022-10-16T05:47:44.563Z,11.14
2022-10-16T05:50:33.179Z,11.14
2022-10-16T05:53:26.545Z,11.14
2022-10-16T05:56:15.002Z,11.16
2022-10-16T05:59:05.135Z,11.20
2022-10-16T06:01:54.791Z,11.22
2022-10-16T06:04:43.275Z,11.25
2022-10-16T06:07:31.715Z,11.28
2022-10-16T06:10:20.014Z,11.27
2022-10-16T06:13:08.368Z,11.28
2022-10-16T06:15:59.497Z,11.32
2022-10-16T06:18:48.310Z,11.34
2022-10-16T06:21:36.682Z,11.44
2022-10-16T06:24:24.999Z,11.48
2022-10-16T06:27:13.554Z,11.50
2022-10-16T06:30:02.070Z,11.55
2022-10-16T06:32:51.857Z,11.53
2022-10-16T06:35:40.172Z,11.57
2022-10-16T06:38:28.509Z,11.58
2022-10-16T06:41:17.708Z,11.61
2022-10-16T06:44:07.658Z,11.76
2022-10-16T06:46:56.068Z,11.80
2022-10-16T06:49:49.136Z,11.89
2022-10-16T06:52:38.808Z,11.85
2022-10-16T06:55:27.095Z,11.82
2022-10-16T06:58:15.408Z,11.87
2022-10-16T07:01:03.734Z,11.84
2022-10-16T07:03:52.064Z,11.97
2022-10-16T07:06:42.293Z,12.01
2022-10-16T07:12:24.503Z,12.00
2022-10-16T07:15:13.879Z,12.05
2022-10-16T07:18:02.374Z,12.11
2022-10-16T07:20:50.944Z,12.25
2022-10-16T07:23:40.844Z,12.42
2022-10-16T07:26:31.074Z,12.53
2022-10-16T07:29:20.567Z,12.58
2022-10-16T07:32:08.838Z,12.65
2022-10-16T07:34:57.732Z,12.77
2022-10-16T07:37:47.866Z,12.89
2022-10-16T07:40:37.653Z,12.93
2022-10-16T07:43:25.964Z,12.91
2022-10-16T07:46:14.394Z,12.88
2022-10-16T07:49:02.674Z,12.91
2022-10-16T07:51:50.988Z,12.95
2022-10-16T07:54:39.258Z,12.98
2022-10-16T07:57:29.217Z,13.08
2022-10-16T08:00:17.833Z,13.05
2022-10-16T08:03:06.588Z,12.89
2022-10-16T08:05:54.887Z,12.96
2022-10-16T08:08:43.213Z,13.11
2022-10-16T08:11:31.529Z,13.43
2022-10-16T08:14:21.318Z,13.71
2022-10-16T08:17:09.659Z,13.94
2022-10-16T08:19:58.047Z,14.04
2022-10-16T08:22:46.482Z,14.26
2022-10-16T08:25:36.774Z,14.58
2022-10-16T08:28:25.586Z,14.88
2022-10-16T08:34:05.881Z,15.04
2022-10-16T08:36:55.388Z,14.98
2022-10-16T08:39:43.679Z,15.02
2022-10-16T08:42:38.029Z,15.05
2022-10-16T08:45:34.768Z,15.23
2022-10-16T08:48:27.245Z,15.41
2022-10-16T08:51:20.747Z,15.64
2022-10-16T08:54:15.209Z,15.89
2022-10-16T08:57:10.361Z,15.99
2022-10-16T09:00:01.937Z,16.11
2022-10-16T09:02:55.384Z,16.21
2022-10-16T09:06:02.055Z,16.26
2022-10-16T09:08:55.723Z,16.45
2022-10-16T09:11:49.138Z,16.58
2022-10-16T09:14:47.977Z,16.76
2022-10-16T09:17:43.529Z,16.78
2022-10-16T09:20:35.067Z,16.92
2022-10-16T09:23:27.735Z,16.97
2022-10-16T09:26:19.219Z,17.10
2022-10-16T09:29:07.772Z,17.19
2022-10-16T09:31:57.683Z,17.32
2022-10-16T09:34:48.094Z,17.41
2022-10-16T09:37:36.538Z,17.49
2022-10-16T09:40:28.604Z,17.54
2022-10-16T09:43:22.778Z,17.66
2022-10-16T09:46:22.217Z,17.70
2022-10-16T09:49:21.613Z,17.70
2022-10-16T09:52:14.531Z,17.78
2022-10-16T09:55:03.681Z,17.94
2022-10-16T09:57:52.248Z,18.03
2022-10-16T10:00:43.914Z,18.11
2022-10-16T10:03:39.858Z,18.14
2022-10-16T10:06:29.596Z,18.24
2022-10-16T10:09:22.688Z,18.36
2022-10-16T10:12:21.755Z,18.49
2022-10-16T10:15:14.297Z,18.67
2022-10-16T10:18:05.293Z,18.79
2022-10-16T10:21:02.278Z,18.89
2022-10-16T10:23:59.135Z,18.99
2022-10-16T10:26:54.819Z,19.12
2022-10-16T10:29:55.793Z,19.11
2022-10-16T10:32:58.092Z,19.36
2022-10-16T10:35:56.658Z,19.28
2022-10-16T10:38:51.456Z,19.24
2022-10-16T10:42:06.989Z,19.45
2022-10-16T10:45:06.974Z,19.66
2022-10-16T10:48:26.599Z,19.63
2022-10-16T10:51:26.093Z,19.50
2022-10-16T10:54:20.292Z,19.20
2022-10-16T10:57:18.297Z,19.97
2022-10-16T11:00:23.552Z,19.85
2022-10-16T11:03:27.076Z,20.18
2022-10-16T11:06:20.339Z,20.38
2022-10-16T11:09:14.859Z,20.28
2022-10-16T11:12:09.457Z,20.60
2022-10-16T11:15:04.226Z,20.74
2022-10-16T11:17:56.878Z,20.82
2022-10-16T11:20:51.618Z,20.75
2022-10-16T11:23:46.648Z,20.93
2022-10-16T11:26:42.383Z,21.13
2022-10-16T11:29:34.603Z,21.28
2022-10-16T11:32:29.204Z,21.42
2022-10-16T11:35:23.718Z,21.13
2022-10-16T11:38:22.118Z,21.59
2022-10-16T11:41:21.777Z,21.70
2022-10-16T11:44:21.749Z,21.30
2022-10-16T11:47:46.698Z,21.93
2022-10-16T11:50:37.070Z,21.89
2022-10-16T11:53:37.282Z,22.14
2022-10-16T11:56:27.829Z,22.16
2022-10-16T11:59:26.638Z,22.16
2022-10-16T12:02:34.972Z,22.27
2022-10-16T12:05:32.659Z,22.26
2022-10-16T12:08:22.038Z,22.18
2022-10-16T12:11:22.579Z,22.75
2022-10-16T12:14:57.451Z,22.70
2022-10-16T12:17:46.358Z,22.83
2022-10-16T12:20:37.711Z,23.00
2022-10-16T12:23:26.718Z,23.17
2022-10-16T12:26:15.549Z,23.44
2022-10-16T12:29:20.794Z,23.86
2022-10-16T12:32:45.647Z,24.08
2022-10-16T12:35:45.174Z,23.97
2022-10-16T12:38:41.070Z,23.63
2022-10-16T12:41:31.937Z,23.69
2022-10-16T12:44:27.490Z,23.98
2022-10-16T12:47:25.354Z,23.65
2022-10-16T12:50:28.333Z,24.68
2022-10-16T12:53:22.428Z,24.87
2022-10-16T12:56:21.482Z,25.08
2022-10-16T12:59:20.166Z,25.34
2022-10-16T13:02:35.457Z,25.34
2022-10-16T13:08:43.780Z,25.50
2022-10-16T13:11:46.176Z,25.47
2022-10-16T13:14:58.144Z,25.94
2022-10-16T13:17:54.868Z,26.33
2022-10-16T13:20:58.786Z,26.72
2022-10-16T13:23:54.900Z,26.51
2022-10-16T13:26:52.343Z,26.21
2022-10-16T13:29:42.432Z,26.29
2022-10-16T13:32:31.718Z,26.35
2022-10-16T13:35:27.544Z,26.46
2022-10-16T13:38:18.198Z,25.94
2022-10-16T13:41:08.564Z,26.11
2022-10-16T13:43:59.125Z,27.21
2022-10-16T13:46:47.898Z,28.56
2022-10-16T13:49:36.537Z,29.66
2022-10-16T13:52:26.814Z,30.08
2022-10-16T13:55:17.184Z,30.94
2022-10-16T13:58:14.126Z,31.80
2022-10-16T14:01:06.575Z,31.84
2022-10-16T14:03:55.413Z,32.24
2022-10-16T14:06:47.317Z,32.63
2022-10-16T14:09:37.612Z,32.83
2022-10-16T14:12:28.261Z,32.59
2022-10-16T14:15:20.685Z,32.14
2022-10-16T14:18:09.435Z,31.84
2022-10-16T14:21:05.974Z,31.66
2022-10-16T14:23:55.410Z,31.26
2022-10-16T14:26:51.064Z,31.04
2022-10-16T14:29:40.027Z,30.92
2022-10-16T14:32:28.991Z,30.55
2022-10-16T14:35:26.907Z,30.59
2022-10-16T14:38:22.103Z,30.05
2022-10-16T14:41:11.122Z,29.17
2022-10-16T14:44:04.420Z,28.39
2022-10-16T14:46:52.899Z,27.69
2022-10-16T14:49:41.439Z,26.63
2022-10-16T14:52:30.115Z,25.69
2022-10-16T14:55:19.627Z,24.52
2022-10-16T14:58:08.619Z,23.94
2022-10-16T15:00:58.835Z,23.33
2022-10-16T15:03:47.645Z,22.86
2022-10-16T15:06:36.348Z,22.32
2022-10-16T15:09:28.461Z,21.92
2022-10-16T15:12:17.384Z,21.70
2022-10-16T15:15:29.304Z,21.34
2022-10-16T15:18:21.549Z,21.00
2022-10-16T15:21:10.534Z,20.64
2022-10-16T15:23:59.494Z,20.51
2022-10-16T15:26:48.255Z,20.23
2022-10-16T15:29:36.954Z,20.01
2022-10-16T15:32:25.612Z,19.84
2022-10-16T15:35:15.999Z,19.65
2022-10-16T15:38:05.075Z,19.43
2022-10-16T15:40:54.018Z,19.40
2022-10-16T15:43:42.818Z,19.19
2022-10-16T15:46:32.119Z,19.19
2022-10-16T15:49:21.063Z,19.17
2022-10-16T15:52:11.766Z,18.52
2022-10-16T15:55:00.606Z,18.52
2022-10-16T15:57:49.343Z,18.40
2022-10-16T16:00:38.709Z,18.41
2022-10-16T16:03:28.116Z,18.04
2022-10-16T16:06:17.203Z,18.03
2022-10-16T16:09:07.308Z,17.90
2022-10-16T16:11:55.992Z,17.91
2022-10-16T16:14:47.185Z,17.83
2022-10-16T16:17:36.698Z,17.73
2022-10-16T16:20:25.315Z,17.60
2022-10-16T16:23:14.378Z,17.38
2022-10-16T16:26:10.962Z,17.24
2022-10-16T16:29:00.181Z,17.10
2022-10-16T16:31:49.363Z,17.16
2022-10-16T16:34:38.672Z,16.77
2022-10-16T16:37:27.709Z,17.03
2022-10-16T16:40:17.245Z,16.85
2022-10-16T16:43:07.878Z,16.80
2022-10-16T16:45:57.592Z,16.63
2022-10-16T16:48:47.082Z,16.75
2022-10-16T16:51:39.737Z,16.68
2022-10-16T16:54:29.875Z,16.52
2022-10-16T16:57:19.066Z,16.57
2022-10-16T17:00:11.527Z,16.47
2022-10-16T17:03:00.973Z,16.44
2022-10-16T17:05:58.663Z,16.34
2022-10-16T17:08:47.943Z,16.50
2022-10-16T17:11:39.672Z,16.14
2022-10-16T17:14:29.644Z,16.23
2022-10-16T17:17:21.435Z,15.25
2022-10-16T17:20:12.444Z,16.24
2022-10-16T17:23:02.968Z,16.10
2022-10-16T17:25:53.423Z,16.26
2022-10-16T17:28:44.214Z,16.14
2022-10-16T17:31:36.074Z,16.16
2022-10-16T17:34:27.838Z,15.91
2022-10-16T17:37:18.563Z,15.96
2022-10-16T17:40:10.315Z,15.95
2022-10-16T17:43:00.858Z,15.66
2022-10-16T17:45:51.235Z,15.96
2022-10-16T17:48:41.344Z,15.91
2022-10-16T17:51:34.910Z,15.25
2022-10-16T17:54:24.630Z,15.81
2022-10-16T17:57:16.049Z,15.52
2022-10-16T18:00:06.935Z,15.51
2022-10-16T18:02:57.134Z,15.38
2022-10-16T18:05:49.840Z,15.61
2022-10-16T18:08:41.821Z,15.58
2022-10-16T18:11:32.581Z,15.37
2022-10-16T18:14:22.924Z,15.59
2022-10-16T18:17:16.184Z,15.54
2022-10-16T18:20:06.395Z,14.80
2022-10-16T18:22:56.055Z,15.45
2022-10-16T18:25:54.427Z,15.44
2022-10-16T18:28:44.744Z,14.56
2022-10-16T18:31:37.742Z,14.76
2022-10-16T18:34:30.226Z,15.41
2022-10-16T18:37:20.719Z,15.31
2022-10-16T18:40:11.552Z,15.26
2022-10-16T18:43:06.115Z,15.13
2022-10-16T18:46:02.049Z,15.19
2022-10-16T18:48:54.587Z,15.23
2022-10-16T18:51:53.634Z,15.22
2022-10-16T18:54:44.925Z,15.14
2022-10-16T18:57:34.798Z,15.08
2022-10-16T19:00:26.509Z,15.03
2022-10-16T19:03:15.968Z,15.04
2022-10-16T19:06:09.048Z,14.98
2022-10-16T19:08:59.557Z,14.80
2022-10-16T19:11:50.029Z,14.88
2022-10-16T19:14:41.952Z,14.81
2022-10-16T19:17:38.362Z,14.79
2022-10-16T19:20:28.754Z,14.78
2022-10-16T19:23:19.146Z,14.78
2022-10-16T19:26:10.261Z,14.63
2022-10-16T19:29:02.207Z,14.64
2022-10-16T19:31:52.214Z,14.63
2022-10-16T19:34:43.051Z,14.60
2022-10-16T19:37:31.903Z,14.67
2022-10-16T19:40:20.908Z,14.64
2022-10-16T19:43:09.868Z,14.47
2022-10-16T19:45:58.524Z,14.54
2022-10-16T19:48:48.830Z,14.23
2022-10-16T19:51:40.612Z,13.50
2022-10-16T19:54:30.368Z,14.51
2022-10-16T19:57:19.340Z,12.05
2022-10-16T20:00:10.157Z,14.42
2022-10-16T20:02:58.779Z,14.41
2022-10-16T20:05:54.658Z,14.40
2022-10-16T20:08:46.012Z,14.37
2022-10-16T20:11:36.799Z,14.34
2022-10-16T20:14:25.705Z,14.27
2022-10-16T20:17:14.704Z,14.26
2022-10-16T20:20:03.607Z,14.22
2022-10-16T20:22:52.265Z,14.24
2022-10-16T20:25:44.215Z,14.17
2022-10-16T20:28:33.015Z,14.09
2022-10-16T20:31:24.191Z,14.23
2022-10-16T20:34:14.107Z,14.26
2022-10-16T20:37:02.805Z,14.28
2022-10-16T20:39:51.533Z,14.27
2022-10-16T20:42:41.624Z,14.19
2022-10-16T20:45:30.572Z,14.16
2022-10-16T20:48:19.144Z,14.08
2022-10-16T20:51:13.649Z,13.85
2022-10-16T20:54:04.043Z,13.26
2022-10-16T20:56:53.198Z,13.96
2022-10-16T20:59:43.186Z,13.97
2022-10-16T21:02:31.905Z,13.98
2022-10-16T21:05:20.904Z,14.00
2022-10-16T21:08:09.761Z,13.91
2022-10-16T21:10:58.413Z,14.03
2022-10-16T21:13:47.578Z,13.90
2022-10-16T21:16:38.081Z,13.79
2022-10-16T21:19:26.767Z,13.83
2022-10-16T21:22:15.396Z,13.83
2022-10-16T21:25:04.078Z,13.74
2022-10-16T21:27:52.680Z,13.71
2022-10-16T21:30:41.283Z,13.64
2022-10-16T21:33:31.228Z,13.66
2022-10-16T21:36:21.158Z,13.65
2022-10-16T21:39:11.904Z,13.65
2022-10-16T21:42:00.460Z,13.65
2022-10-16T21:44:49.033Z,13.72
2022-10-16T21:47:37.694Z,13.73
2022-10-16T21:50:27.785Z,13.39
2022-10-16T21:53:16.529Z,13.56
2022-10-16T21:56:05.581Z,13.52
2022-10-16T21:58:54.218Z,13.40
2022-10-16T22:01:43.478Z,13.36
2022-10-16T22:04:32.174Z,13.47
2022-10-16T22:07:22.096Z,13.41
2022-10-16T22:10:11.637Z,13.36
2022-10-16T22:13:00.207Z,13.00
2022-10-16T22:15:52.278Z,13.18
2022-10-16T22:18:41.274Z,13.17
2022-10-16T22:21:32.474Z,13.14
2022-10-16T22:24:22.710Z,13.10
2022-10-16T22:27:11.460Z,13.15
2022-10-16T22:30:00.057Z,12.69
2022-10-16T22:32:48.728Z,13.13
2022-10-16T22:35:38.728Z,13.10
2022-10-16T22:38:27.361Z,12.97
2022-10-16T22:41:17.930Z,13.06
2022-10-16T22:44:06.666Z,13.06
2022-10-16T22:46:55.218Z,13.06
2022-10-16T22:49:43.832Z,12.96
2022-10-16T22:52:33.107Z,13.10
2022-10-16T22:55:22.193Z,13.15
2022-10-16T22:58:12.205Z,13.03
2022-10-16T23:01:00.858Z,13.01
2022-10-16T23:03:49.622Z,12.95
2022-10-16T23:06:38.393Z,12.93
2022-10-16T23:09:27.108Z,12.92
2022-10-16T23:12:15.742Z,12.91
2022-10-16T23:15:06.532Z,12.89
2022-10-16T23:17:55.143Z,13.00
2022-10-16T23:20:44.158Z,12.98
2022-10-16T23:23:32.749Z,12.90
2022-10-16T23:26:23.917Z,12.88
2022-10-16T23:29:12.607Z,12.72
2022-10-16T23:32:02.659Z,12.56
2022-10-16T23:34:51.379Z,12.73
2022-10-16T23:37:39.935Z,12.18
2022-10-16T23:40:28.576Z,12.67
2022-10-16T23:43:17.194Z,12.57
2022-10-16T23:46:06.681Z,12.61
2022-10-16T23:48:56.699Z,12.01
2022-10-16T23:51:45.363Z,12.54
2022-10-16T23:54:33.989Z,12.55
2022-10-16T23:57:22.588Z,12.58
